Time;durP1;ratioP1;P1;durP2;ratioP2;P2;SDS_P1;SDS_P2;PMS_P1;PMS_P2;Temp;Humidity;BMP_temperature;BMP_pressure;BME280_temperature;BME280_humidity;BME280_pressure;Samples;Min_cycle;Max_cycle;Signal;HPM_P1;HPM_P2
2024/03/26 00:00:45;;;;;;;5.80;0.90;;;;;;;;;;2060578;28;20095;-44
2024/03/26 00:01:46;;;;;;;3.40;1.02;;;;;;;;;;2064483;28;20033;-44
2024/03/26 00:02:48;;;;;;;4.63;0.95;;;;;;;;;;2061330;28;20473;-48
2024/03/26 00:03:49;;;;;;;5.60;0.57;;;;;;;;;;2063327;28;20551;-47
2024/03/26 00:04:50;;;;;;;1.75;0.65;;;;;;;;;;2063131;28;20536;-49
2024/03/26 00:05:52;;;;;;;4.22;1.45;;;;;;;;;;2062875;28;20034;-44
2024/03/26 00:06:53;;;;;;;2.42;0.80;;;;;;;;;;2064327;28;20401;-45
2024/03/26 00:07:54;;;;;;;4.90;1.25;;;;;;;;;;2058209;28;20023;-44
2024/03/26 00:08:56;;;;;;;5.10;1.00;;;;;;;;;;2057576;28;20093;-44
2024/03/26 00:09:57;;;;;;;2.47;0.75;;;;;;;;;;2056197;28;20398;-45
2024/03/26 00:11:00;;;;;;;3.55;0.90;;;;;;;;;;2057567;28;20023;-46
2024/03/26 00:12:02;;;;;;;2.47;1.00;;;;;;;;;;2056207;28;20037;-45
2024/03/26 00:13:03;;;;;;;1.80;0.57;;;;;;;;;;2056932;28;20042;-45
2024/03/26 00:14:04;;;;;;;4.15;0.73;;;;;;;;;;2056968;28;20046;-45
2024/03/26 00:15:06;;;;;;;2.38;0.57;;;;;;;;;;2056405;28;20031;-45
2024/03/26 00:16:07;;;;;;;3.92;0.70;;;;;;;;;;2057184;28;20025;-50
2024/03/26 00:17:08;;;;;;;4.90;0.98;;;;;;;;;;2061476;28;20049;-49
2024/03/26 00:18:10;;;;;;;1.75;0.60;;;;;;;;;;2056434;28;20093;-49
2024/03/26 00:19:12;;;;;;;4.97;1.23;;;;;;;;;;2056895;28;20380;-47
2024/03/26 00:20:13;;;;;;;1.95;0.68;;;;;;;;;;2055647;28;20023;-48
2024/03/26 00:21:15;;;;;;;2.83;0.55;;;;;;;;;;2060519;28;20382;-47
2024/03/26 00:22:16;;;;;;;4.03;0.50;;;;;;;;;;2060002;28;20430;-47
2024/03/26 00:23:18;;;;;;;3.00;0.85;;;;;;;;;;2057386;28;20033;-47
2024/03/26 00:24:20;;;;;;;4.20;0.75;;;;;;;;;;2058811;28;20030;-50
2024/03/26 00:25:22;;;;;;;1.75;0.80;;;;;;;;;;2056243;28;20038;-48
2024/03/26 00:26:23;;;;;;;4.07;0.80;;;;;;;;;;2055447;28;20038;-43
2024/03/26 00:27:24;;;;;;;4.15;0.70;;;;;;;;;;2054210;28;20042;-48
2024/03/26 00:28:26;;;;;;;3.88;0.73;;;;;;;;;;2063458;28;20030;-49
2024/03/26 00:29:27;;;;;;;3.15;0.68;;;;;;;;;;2058589;28;20025;-48
2024/03/26 00:30:28;;;;;;;3.67;0.80;;;;;;;;;;2061493;28;20026;-50
2024/03/26 00:31:33;;;;;;;4.05;0.90;;;;;;;;;;2064366;28;20112;-49
2024/03/26 00:32:34;;;;;;;2.55;0.82;;;;;;;;;;2062567;28;20049;-48
2024/03/26 00:33:37;;;;;;;3.67;0.60;;;;;;;;;;2056019;28;20106;-45
2024/03/26 00:34:38;;;;;;;2.88;0.90;;;;;;;;;;2064392;28;20022;-49
2024/03/26 00:35:39;;;;;;;3.88;0.82;;;;;;;;;;2062451;28;20023;-48
2024/03/26 00:36:40;;;;;;;2.55;0.80;;;;;;;;;;2063602;28;20025;-48
2024/03/26 00:37:42;;;;;;;6.13;0.80;;;;;;;;;;2063290;28;20027;-48
2024/03/26 00:38:43;;;;;;;2.97;0.90;;;;;;;;;;2057828;28;20098;-49
2024/03/26 00:39:44;;;;;;;3.95;0.70;;;;;;;;;;2063379;28;20041;-48
2024/03/26 00:40:46;;;;;;;2.25;0.98;;;;;;;;;;2063727;28;20076;-49
2024/03/26 00:41:47;;;;;;;2.53;0.77;;;;;;;;;;2064050;28;20497;-49
2024/03/26 00:42:48;;;;;;;5.10;1.25;;;;;;;;;;2063760;28;20018;-49
2024/03/26 00:43:50;;;;;;;4.47;0.77;;;;;;;;;;2060281;28;20022;-48
2024/03/26 00:44:51;;;;;;;3.85;0.82;;;;;;;;;;2064200;28;20022;-48
2024/03/26 00:45:53;;;;;;;4.72;1.08;;;;;;;;;;2064168;28;20564;-50
2024/03/26 00:46:54;;;;;;;2.88;0.52;;;;;;;;;;2061020;28;20113;-49
2024/03/26 00:47:55;;;;;;;5.63;0.90;;;;;;;;;;2062996;28;20046;-47
2024/03/26 00:48:56;;;;;;;2.78;1.10;;;;;;;;;;2062356;28;20110;-49
2024/03/26 00:49:58;;;;;;;6.40;1.38;;;;;;;;;;2064110;28;20104;-44
2024/03/26 00:50:59;;;;;;;7.00;1.17;;;;;;;;;;2064361;28;20022;-44
2024/03/26 00:52:00;;;;;;;3.15;0.70;;;;;;;;;;2063900;28;20059;-44
2024/03/26 00:53:02;;;;;;;5.28;0.93;;;;;;;;;;2060658;28;20026;-46
2024/03/26 00:54:03;;;;;;;4.88;1.42;;;;;;;;;;2056141;28;20035;-45
2024/03/26 00:55:04;;;;;;;4.25;1.08;;;;;;;;;;2056341;28;20161;-41
2024/03/26 00:56:06;;;;;;;2.88;0.75;;;;;;;;;;2058548;28;20043;-43
2024/03/26 00:57:07;;;;;;;2.25;1.08;;;;;;;;;;2064337;28;20605;-43
2024/03/26 00:58:08;;;;;;;5.28;1.02;;;;;;;;;;2061340;28;20061;-43
2024/03/26 00:59:10;;;;;;;1.98;0.90;;;;;;;;;;2056841;28;20490;-43
2024/03/26 01:00:12;;;;;;;6.50;1.45;;;;;;;;;;2064381;28;20010;-44
2024/03/26 01:01:13;;;;;;;5.43;1.30;;;;;;;;;;2064029;28;20450;-44
2024/03/26 01:02:14;;;;;;;3.47;0.82;;;;;;;;;;2064247;28;20049;-43
2024/03/26 01:03:16;;;;;;;6.35;1.25;;;;;;;;;;2064606;28;20033;-46
2024/03/26 01:04:17;;;;;;;5.32;1.40;;;;;;;;;;2061759;28;20031;-48
2024/03/26 01:05:19;;;;;;;5.97;1.33;;;;;;;;;;2049184;28;20035;-48
2024/03/26 01:06:20;;;;;;;2.72;0.80;;;;;;;;;;2063465;28;20523;-47
2024/03/26 01:07:22;;;;;;;4.10;0.82;;;;;;;;;;2065270;28;20033;-48
2024/03/26 01:08:23;;;;;;;5.65;1.30;;;;;;;;;;2065655;28;20041;-47
2024/03/26 01:09:24;;;;;;;2.20;0.85;;;;;;;;;;2065535;28;20018;-44
2024/03/26 01:10:27;;;;;;;5.57;0.98;;;;;;;;;;2064455;28;20047;-45
2024/03/26 01:11:28;;;;;;;4.38;1.15;;;;;;;;;;2063177;28;20508;-43
2024/03/26 01:12:32;;;;;;;7.22;1.10;;;;;;;;;;2062456;28;20039;-42
2024/03/26 01:13:34;;;;;;;4.00;0.80;;;;;;;;;;2057674;28;20470;-44
2024/03/26 01:14:35;;;;;;;3.80;0.90;;;;;;;;;;2057335;28;20046;-42
2024/03/26 01:15:36;;;;;;;5.65;1.10;;;;;;;;;;2057855;28;20530;-45
2024/03/26 01:16:38;;;;;;;5.30;1.02;;;;;;;;;;2060554;28;20381;-42
2024/03/26 01:17:39;;;;;;;7.53;1.27;;;;;;;;;;2060768;28;20003;-43
2024/03/26 01:18:40;;;;;;;2.63;0.60;;;;;;;;;;2059107;28;20142;-43
2024/03/26 01:19:42;;;;;;;4.85;0.98;;;;;;;;;;2057574;28;20044;-45
2024/03/26 01:20:44;;;;;;;5.60;1.40;;;;;;;;;;2062560;28;20027;-43
2024/03/26 01:21:47;;;;;;;4.70;1.17;;;;;;;;;;2058155;28;20039;-42
2024/03/26 01:22:49;;;;;;;3.22;1.13;;;;;;;;;;2058973;28;20023;-42
2024/03/26 01:23:50;;;;;;;8.80;1.27;;;;;;;;;;2060840;28;20046;-44
2024/03/26 01:24:51;;;;;;;8.52;1.20;;;;;;;;;;2065717;28;20022;-43
2024/03/26 01:25:53;;;;;;;4.40;0.80;;;;;;;;;;2059668;28;20169;-42
2024/03/26 01:26:54;;;;;;;5.13;0.75;;;;;;;;;;2059611;28;20441;-43
2024/03/26 01:27:56;;;;;;;3.65;0.80;;;;;;;;;;2057568;28;20031;-42
2024/03/26 01:28:59;;;;;;;4.75;1.05;;;;;;;;;;2059232;28;20018;-43
2024/03/26 01:30:00;;;;;;;6.15;1.10;;;;;;;;;;2059304;28;20500;-43
2024/03/26 01:31:02;;;;;;;8.95;1.40;;;;;;;;;;2057687;28;20023;-43
2024/03/26 01:32:03;;;;;;;5.32;0.95;;;;;;;;;;2058809;28;20038;-42
2024/03/26 01:33:04;;;;;;;2.92;0.95;;;;;;;;;;2057709;28;20077;-43
2024/03/26 01:34:06;;;;;;;3.33;0.60;;;;;;;;;;2058183;28;20444;-43
2024/03/26 01:35:08;;;;;;;5.05;1.13;;;;;;;;;;2057753;28;20098;-43
2024/03/26 01:36:09;;;;;;;3.38;0.80;;;;;;;;;;2057587;28;20038;-42
2024/03/26 01:37:11;;;;;;;3.38;0.70;;;;;;;;;;2056693;28;20065;-43
2024/03/26 01:38:12;;;;;;;4.78;1.15;;;;;;;;;;2058705;28;20050;-43
2024/03/26 01:39:14;;;;;;;6.05;0.88;;;;;;;;;;2065501;28;20478;-43
2024/03/26 01:40:15;;;;;;;3.13;0.80;;;;;;;;;;2059911;28;20015;-43
2024/03/26 01:41:16;;;;;;;4.10;1.10;;;;;;;;;;2058569;28;20034;-43
2024/03/26 01:42:17;;;;;;;4.18;1.05;;;;;;;;;;2065526;28;20388;-43
2024/03/26 01:43:19;;;;;;;4.85;0.88;;;;;;;;;;2065231;28;20392;-43
2024/03/26 01:44:21;;;;;;;6.15;0.93;;;;;;;;;;2060990;28;20027;-43
2024/03/26 01:45:23;;;;;;;4.82;0.85;;;;;;;;;;2065381;28;20505;-43
2024/03/26 01:46:24;;;;;;;5.45;1.10;;;;;;;;;;2060860;28;20049;-42
2024/03/26 01:47:26;;;;;;;4.78;0.88;;;;;;;;;;2061866;28;20428;-48
2024/03/26 01:48:27;;;;;;;4.65;1.10;;;;;;;;;;2055455;28;20015;-50
2024/03/26 01:49:33;;;;;;;3.15;0.80;;;;;;;;;;2061435;28;20488;-44
2024/03/26 01:50:35;;;;;;;6.38;1.35;;;;;;;;;;2065272;28;20014;-48
2024/03/26 01:51:38;;;;;;;3.67;0.80;;;;;;;;;;2064809;28;20041;-48
2024/03/26 01:52:40;;;;;;;5.90;1.17;;;;;;;;;;2063072;28;20056;-46
2024/03/26 01:53:41;;;;;;;6.15;1.10;;;;;;;;;;2056942;28;20027;-50
2024/03/26 01:54:44;;;;;;;4.93;1.33;;;;;;;;;;2061406;28;20432;-48
2024/03/26 01:55:45;;;;;;;2.08;0.80;;;;;;;;;;2065412;28;20390;-50
2024/03/26 01:56:46;;;;;;;5.15;0.85;;;;;;;;;;2065364;28;20068;-49
2024/03/26 01:57:48;;;;;;;7.45;1.38;;;;;;;;;;2065084;28;20045;-49
2024/03/26 01:58:49;;;;;;;5.10;1.33;;;;;;;;;;2064712;28;20030;-47
2024/03/26 01:59:54;;;;;;;4.55;1.25;;;;;;;;;;2064459;28;20070;-48
2024/03/26 02:00:58;;;;;;;5.03;0.88;;;;;;;;;;2061567;28;20019;-49
2024/03/26 02:01:59;;;;;;;3.00;1.05;;;;;;;;;;2065421;28;20315;-52
2024/03/26 02:03:04;;;;;;;4.10;0.80;;;;;;;;;;2065123;28;20038;-50
2024/03/26 02:04:05;;;;;;;3.05;0.88;;;;;;;;;;2063993;28;20026;-48
2024/03/26 02:05:06;;;;;;;3.38;0.65;;;;;;;;;;2064717;28;20413;-48
2024/03/26 02:06:08;;;;;;;3.40;0.60;;;;;;;;;;2065218;28;20045;-50
2024/03/26 02:07:10;;;;;;;3.97;0.90;;;;;;;;;;2064611;28;20019;-48
2024/03/26 02:08:12;;;;;;;4.80;0.95;;;;;;;;;;2064628;28;20101;-48
2024/03/26 02:09:13;;;;;;;7.68;1.00;;;;;;;;;;2065241;28;20036;-49
2024/03/26 02:10:15;;;;;;;3.90;0.90;;;;;;;;;;2064977;28;20390;-49
2024/03/26 02:11:17;;;;;;;2.92;0.90;;;;;;;;;;2064484;28;20038;-49
2024/03/26 02:12:19;;;;;;;6.53;1.00;;;;;;;;;;2064400;28;20027;-48
2024/03/26 02:13:21;;;;;;;5.03;1.17;;;;;;;;;;2064671;28;20038;-44
2024/03/26 02:14:22;;;;;;;4.15;0.65;;;;;;;;;;2064946;28;20077;-48
2024/03/26 02:15:24;;;;;;;4.57;1.00;;;;;;;;;;2063243;28;20014;-49
2024/03/26 02:16:25;;;;;;;2.65;0.85;;;;;;;;;;2059946;28;20394;-49
2024/03/26 02:17:26;;;;;;;4.47;1.08;;;;;;;;;;2053476;28;20034;-49
2024/03/26 02:18:28;;;;;;;6.20;0.93;;;;;;;;;;2056622;28;20046;-48
2024/03/26 02:19:29;;;;;;;3.00;0.90;;;;;;;;;;2057337;28;20357;-49
2024/03/26 02:20:30;;;;;;;4.88;1.13;;;;;;;;;;2060796;28;20436;-50
2024/03/26 02:21:33;;;;;;;4.05;1.20;;;;;;;;;;2058227;28;20481;-44
2024/03/26 02:22:35;;;;;;;4.45;0.90;;;;;;;;;;2063366;28;20023;-45
2024/03/26 02:23:36;;;;;;;5.22;1.08;;;;;;;;;;2062349;28;20023;-45
2024/03/26 02:24:39;;;;;;;3.33;0.68;;;;;;;;;;2064347;28;20031;-45
2024/03/26 02:25:40;;;;;;;6.53;1.05;;;;;;;;;;2064845;28;20026;-45
2024/03/26 02:26:41;;;;;;;2.38;0.85;;;;;;;;;;2065039;28;20170;-45
2024/03/26 02:27:44;;;;;;;4.53;0.90;;;;;;;;;;2065097;28;20462;-44
2024/03/26 02:28:45;;;;;;;3.58;0.70;;;;;;;;;;2064951;28;20096;-44
2024/03/26 02:29:46;;;;;;;3.10;0.70;;;;;;;;;;2062069;28;20401;-44
2024/03/26 02:30:49;;;;;;;3.63;0.80;;;;;;;;;;2063621;28;20021;-45
2024/03/26 02:31:50;;;;;;;4.97;1.13;;;;;;;;;;2065012;28;20036;-45
2024/03/26 02:32:52;;;;;;;6.38;0.98;;;;;;;;;;2065126;28;20057;-45
2024/03/26 02:33:54;;;;;;;3.72;0.70;;;;;;;;;;2060678;28;20405;-44
2024/03/26 02:34:56;;;;;;;5.40;0.77;;;;;;;;;;2064536;28;20033;-45
2024/03/26 02:35:57;;;;;;;3.60;0.70;;;;;;;;;;2064975;28;20011;-45
2024/03/26 02:36:59;;;;;;;3.55;0.65;;;;;;;;;;2065025;28;20017;-45
2024/03/26 02:38:00;;;;;;;3.72;1.00;;;;;;;;;;2064898;28;20093;-48
2024/03/26 02:39:03;;;;;;;3.83;0.70;;;;;;;;;;2064906;28;20026;-46
2024/03/26 02:40:05;;;;;;;3.33;0.88;;;;;;;;;;2064950;28;20061;-48
2024/03/26 02:41:07;;;;;;;3.17;0.75;;;;;;;;;;2058219;28;20143;-46
2024/03/26 02:42:08;;;;;;;4.68;1.08;;;;;;;;;;2064736;28;20022;-49
2024/03/26 02:43:11;;;;;;;2.40;0.80;;;;;;;;;;2064842;28;20405;-48
2024/03/26 02:44:12;;;;;;;3.22;0.95;;;;;;;;;;2061492;28;20026;-48
2024/03/26 02:45:14;;;;;;;4.93;0.98;;;;;;;;;;2062106;28;20534;-48
2024/03/26 02:46:15;;;;;;;3.60;0.57;;;;;;;;;;2064175;28;20033;-49
2024/03/26 02:47:16;;;;;;;4.65;1.13;;;;;;;;;;2063244;28;20029;-49
2024/03/26 02:48:18;;;;;;;3.85;0.80;;;;;;;;;;2056743;28;20086;-49
2024/03/26 02:49:19;;;;;;;2.83;0.52;;;;;;;;;;2062521;28;20069;-49
2024/03/26 02:50:20;;;;;;;3.75;0.55;;;;;;;;;;2063661;28;20472;-50
2024/03/26 02:51:22;;;;;;;4.20;0.40;;;;;;;;;;2064517;28;20096;-43
2024/03/26 02:52:23;;;;;;;2.72;0.73;;;;;;;;;;2064582;28;20057;-45
2024/03/26 02:53:26;;;;;;;5.68;0.70;;;;;;;;;;2064097;28;20030;-43
2024/03/26 02:54:27;;;;;;;2.65;0.60;;;;;;;;;;2064800;28;20022;-42
2024/03/26 02:55:28;;;;;;;2.55;0.75;;;;;;;;;;2064595;28;20046;-42
2024/03/26 02:56:29;;;;;;;1.67;0.40;;;;;;;;;;2064192;28;20114;-42
2024/03/26 02:57:31;;;;;;;3.70;0.60;;;;;;;;;;2064093;28;20357;-43
2024/03/26 02:58:32;;;;;;;3.63;0.70;;;;;;;;;;2064229;28;20030;-43
2024/03/26 02:59:33;;;;;;;2.47;0.60;;;;;;;;;;2060328;28;20426;-42
2024/03/26 03:00:35;;;;;;;2.20;0.77;;;;;;;;;;2056312;28;20122;-42
2024/03/26 03:01:36;;;;;;;2.63;0.57;;;;;;;;;;2056775;28;20397;-43
2024/03/26 03:02:38;;;;;;;1.60;0.30;;;;;;;;;;2059775;28;20133;-42
2024/03/26 03:03:39;;;;;;;1.80;0.65;;;;;;;;;;2064976;28;20033;-51
2024/03/26 03:04:41;;;;;;;1.52;0.60;;;;;;;;;;2054244;28;20421;-49
2024/03/26 03:05:42;;;;;;;2.70;0.40;;;;;;;;;;2047445;28;20158;-44
2024/03/26 03:06:43;;;;;;;2.75;0.40;;;;;;;;;;2062770;28;20026;-44
2024/03/26 03:07:45;;;;;;;2.25;0.70;;;;;;;;;;2064902;28;20030;-44
2024/03/26 03:08:46;;;;;;;1.60;0.30;;;;;;;;;;2064005;28;20022;-45
2024/03/26 03:09:47;;;;;;;1.50;0.32;;;;;;;;;;2064450;28;20037;-44
2024/03/26 03:10:49;;;;;;;3.72;0.43;;;;;;;;;;2064296;28;20025;-44
2024/03/26 03:11:50;;;;;;;2.10;0.50;;;;;;;;;;2064849;28;20043;-45
2024/03/26 03:12:51;;;;;;;3.42;0.45;;;;;;;;;;2064456;28;20056;-47
2024/03/26 03:13:53;;;;;;;2.42;0.60;;;;;;;;;;2063560;28;20030;-48
2024/03/26 03:14:54;;;;;;;2.30;0.28;;;;;;;;;;2064541;28;20038;-47
2024/03/26 03:15:55;;;;;;;3.33;0.50;;;;;;;;;;2064243;28;20069;-48
2024/03/26 03:16:57;;;;;;;1.45;0.52;;;;;;;;;;2058523;28;20019;-48
2024/03/26 03:17:58;;;;;;;1.77;0.50;;;;;;;;;;2056819;28;20494;-48
2024/03/26 03:18:59;;;;;;;1.05;0.35;;;;;;;;;;2064755;28;20085;-48
2024/03/26 03:20:01;;;;;;;1.30;0.40;;;;;;;;;;2064634;28;20101;-47
2024/03/26 03:21:02;;;;;;;3.30;0.70;;;;;;;;;;2064785;28;20460;-47
2024/03/26 03:22:04;;;;;;;2.47;0.35;;;;;;;;;;2063585;28;20019;-47
2024/03/26 03:23:06;;;;;;;2.78;0.50;;;;;;;;;;2064899;28;20576;-46
2024/03/26 03:24:07;;;;;;;3.63;0.43;;;;;;;;;;2064117;28;20026;-45
2024/03/26 03:25:09;;;;;;;4.20;0.47;;;;;;;;;;2064390;28;20015;-44
2024/03/26 03:26:10;;;;;;;1.42;0.50;;;;;;;;;;2059212;28;20134;-45
2024/03/26 03:27:11;;;;;;;1.98;0.77;;;;;;;;;;2063007;28;20097;-48
2024/03/26 03:28:13;;;;;;;3.40;0.50;;;;;;;;;;2064455;28;20029;-45
2024/03/26 03:29:14;;;;;;;1.50;0.43;;;;;;;;;;2064720;28;20065;-44
2024/03/26 03:30:16;;;;;;;2.15;0.60;;;;;;;;;;2063784;28;20022;-45
2024/03/26 03:31:17;;;;;;;3.13;0.50;;;;;;;;;;2063944;28;20038;-44
2024/03/26 03:32:19;;;;;;;1.20;0.50;;;;;;;;;;2064683;28;20027;-45
2024/03/26 03:33:21;;;;;;;1.85;0.52;;;;;;;;;;2063772;28;20062;-46
2024/03/26 03:34:22;;;;;;;3.42;0.73;;;;;;;;;;2064013;28;20022;-44
2024/03/26 03:35:23;;;;;;;1.65;0.50;;;;;;;;;;2064508;28;20006;-45
2024/03/26 03:36:25;;;;;;;0.93;0.40;;;;;;;;;;2060920;28;20385;-45
2024/03/26 03:37:26;;;;;;;4.45;0.80;;;;;;;;;;2064712;28;20022;-45
2024/03/26 03:38:27;;;;;;;2.22;0.70;;;;;;;;;;2058801;28;20108;-44
2024/03/26 03:39:29;;;;;;;2.17;0.60;;;;;;;;;;2059273;28;20023;-44
2024/03/26 03:40:30;;;;;;;2.03;0.40;;;;;;;;;;2056486;28;20105;-44
2024/03/26 03:41:31;;;;;;;1.67;0.50;;;;;;;;;;2060182;28;20018;-44
2024/03/26 03:42:33;;;;;;;1.73;0.60;;;;;;;;;;2064433;28;20477;-44
2024/03/26 03:43:34;;;;;;;3.72;0.88;;;;;;;;;;2064362;28;20489;-44
2024/03/26 03:44:36;;;;;;;2.05;0.52;;;;;;;;;;2064578;28;20026;-47
2024/03/26 03:45:37;;;;;;;1.73;0.32;;;;;;;;;;2064463;28;20053;-47
2024/03/26 03:46:38;;;;;;;3.63;0.60;;;;;;;;;;2056309;28;20505;-45
2024/03/26 03:47:40;;;;;;;1.58;0.40;;;;;;;;;;2063760;28;20030;-51
2024/03/26 03:48:41;;;;;;;2.20;0.50;;;;;;;;;;2064178;28;20026;-46
2024/03/26 03:49:42;;;;;;;3.20;0.80;;;;;;;;;;2064486;28;20026;-47
2024/03/26 03:50:44;;;;;;;1.73;0.40;;;;;;;;;;2064370;28;20038;-46
2024/03/26 03:51:45;;;;;;;1.75;0.47;;;;;;;;;;2064480;28;20030;-47
2024/03/26 03:52:46;;;;;;;2.70;0.68;;;;;;;;;;2064631;28;20080;-49
2024/03/26 03:53:48;;;;;;;2.28;0.50;;;;;;;;;;2059053;28;20029;-45
2024/03/26 03:54:49;;;;;;;2.17;0.70;;;;;;;;;;2056704;28;20085;-48
2024/03/26 03:55:50;;;;;;;2.15;0.50;;;;;;;;;;2062846;28;20105;-47
2024/03/26 03:56:52;;;;;;;3.15;0.50;;;;;;;;;;2055874;28;20015;-47
2024/03/26 03:57:53;;;;;;;2.65;0.50;;;;;;;;;;2055925;28;20382;-49
2024/03/26 03:58:54;;;;;;;2.97;0.30;;;;;;;;;;2063232;28;20397;-47
2024/03/26 03:59:56;;;;;;;1.88;0.60;;;;;;;;;;2064273;28;20039;-46
2024/03/26 04:00:57;;;;;;;1.85;0.60;;;;;;;;;;2064205;28;20025;-47
2024/03/26 04:01:58;;;;;;;1.90;0.40;;;;;;;;;;2064189;28;20456;-44
2024/03/26 04:02:59;;;;;;;3.35;0.77;;;;;;;;;;2064346;28;20026;-46
2024/03/26 04:04:01;;;;;;;2.78;0.63;;;;;;;;;;2064274;28;20401;-46
2024/03/26 04:05:02;;;;;;;3.17;0.32;;;;;;;;;;2064318;28;20028;-47
2024/03/26 04:06:05;;;;;;;1.83;0.50;;;;;;;;;;2064339;28;20164;-46
2024/03/26 04:07:06;;;;;;;1.65;0.63;;;;;;;;;;2056843;28;20031;-49
2024/03/26 04:08:09;;;;;;;1.40;0.30;;;;;;;;;;2059573;28;20030;-48
2024/03/26 04:09:10;;;;;;;2.63;0.75;;;;;;;;;;2063870;28;20022;-47
2024/03/26 04:10:12;;;;;;;1.15;0.22;;;;;;;;;;2064314;28;20015;-46
2024/03/26 04:11:13;;;;;;;2.45;0.40;;;;;;;;;;2064387;28;20010;-46
2024/03/26 04:12:14;;;;;;;3.80;0.52;;;;;;;;;;2064493;28;20023;-46
2024/03/26 04:13:16;;;;;;;2.78;0.30;;;;;;;;;;2063404;28;20636;-46
2024/03/26 04:14:17;;;;;;;1.63;0.40;;;;;;;;;;2064360;28;20022;-41
2024/03/26 04:15:18;;;;;;;0.47;0.20;;;;;;;;;;2064457;28;20512;-42
2024/03/26 04:16:20;;;;;;;3.22;0.55;;;;;;;;;;2063579;28;20362;-43
2024/03/26 04:17:21;;;;;;;1.38;0.30;;;;;;;;;;2064456;28;20037;-42
2024/03/26 04:18:22;;;;;;;1.98;0.50;;;;;;;;;;2064433;28;20076;-43
2024/03/26 04:19:25;;;;;;;1.00;0.50;;;;;;;;;;2062939;28;20058;-42
2024/03/26 04:20:26;;;;;;;2.10;0.40;;;;;;;;;;2056472;28;20038;-41
2024/03/26 04:21:29;;;;;;;0.80;0.25;;;;;;;;;;2061806;28;20026;-43
2024/03/26 04:22:30;;;;;;;2.40;0.30;;;;;;;;;;2064115;28;20469;-43
2024/03/26 04:23:32;;;;;;;2.42;0.57;;;;;;;;;;2063923;28;20582;-43
2024/03/26 04:24:34;;;;;;;1.75;0.47;;;;;;;;;;2063430;28;20027;-43
2024/03/26 04:25:35;;;;;;;1.40;0.30;;;;;;;;;;2062024;28;20023;-43
2024/03/26 04:26:36;;;;;;;1.27;0.45;;;;;;;;;;2063036;28;20030;-43
2024/03/26 04:27:38;;;;;;;1.42;0.60;;;;;;;;;;2064258;28;20499;-43
2024/03/26 04:28:39;;;;;;;0.95;0.30;;;;;;;;;;2063795;28;20393;-44
2024/03/26 04:29:40;;;;;;;1.73;0.50;;;;;;;;;;2063692;28;20018;-43
2024/03/26 04:30:42;;;;;;;2.53;0.50;;;;;;;;;;2059904;28;20101;-43
2024/03/26 04:31:44;;;;;;;1.80;0.38;;;;;;;;;;2064587;28;20033;-43
2024/03/26 04:32:45;;;;;;;0.93;0.30;;;;;;;;;;2064289;28;20146;-50
2024/03/26 04:33:46;;;;;;;2.22;0.90;;;;;;;;;;2064370;28;20090;-42
2024/03/26 04:34:48;;;;;;;2.05;0.30;;;;;;;;;;2063927;28;20037;-43
2024/03/26 04:35:49;;;;;;;4.07;0.47;;;;;;;;;;2061371;28;20454;-43
2024/03/26 04:36:59;;;;;;;1.30;0.40;;;;;;;;;;2059778;28;20026;-44
2024/03/26 04:38:00;;;;;;;0.47;0.23;;;;;;;;;;2056232;28;20412;-43
2024/03/26 04:39:03;;;;;;;2.13;0.25;;;;;;;;;;2059944;28;20854;-44
2024/03/26 04:40:06;;;;;;;0.50;0.30;;;;;;;;;;2063971;28;20023;-43
2024/03/26 04:41:07;;;;;;;2.25;0.50;;;;;;;;;;2064319;28;20068;-44
2024/03/26 04:42:08;;;;;;;1.45;0.47;;;;;;;;;;2065504;28;20026;-43
2024/03/26 04:43:10;;;;;;;1.25;0.47;;;;;;;;;;2065953;28;20018;-43
2024/03/26 04:44:11;;;;;;;1.83;0.57;;;;;;;;;;2065732;28;20508;-44
2024/03/26 04:45:12;;;;;;;1.80;0.65;;;;;;;;;;2064435;28;20018;-44
2024/03/26 04:46:14;;;;;;;2.35;0.75;;;;;;;;;;2065367;28;20457;-43
2024/03/26 04:47:15;;;;;;;3.10;0.80;;;;;;;;;;2065505;28;20173;-43
2024/03/26 04:48:16;;;;;;;1.70;0.45;;;;;;;;;;2062685;28;20401;-42
2024/03/26 04:49:18;;;;;;;1.95;0.50;;;;;;;;;;2065538;28;20371;-42
2024/03/26 04:50:19;;;;;;;3.63;0.70;;;;;;;;;;2060623;28;20066;-42
2024/03/26 04:51:21;;;;;;;2.35;0.65;;;;;;;;;;2065338;28;20432;-43
2024/03/26 04:52:22;;;;;;;4.63;0.57;;;;;;;;;;2065928;28;20585;-43
2024/03/26 04:53:23;;;;;;;1.48;0.50;;;;;;;;;;2063971;28;20021;-43
2024/03/26 04:54:25;;;;;;;1.02;0.40;;;;;;;;;;2057894;28;20114;-43
2024/03/26 04:55:27;;;;;;;2.22;0.52;;;;;;;;;;2065636;28;20025;-42
2024/03/26 04:56:29;;;;;;;2.42;0.63;;;;;;;;;;2065141;28;20061;-43
2024/03/26 04:57:32;;;;;;;1.13;0.50;;;;;;;;;;2065681;28;20030;-43
2024/03/26 04:58:33;;;;;;;1.90;0.47;;;;;;;;;;2065831;28;20026;-43
2024/03/26 04:59:35;;;;;;;1.35;0.40;;;;;;;;;;2064532;28;20041;-43
2024/03/26 05:00:36;;;;;;;1.85;0.60;;;;;;;;;;2061147;28;20035;-42
2024/03/26 05:01:37;;;;;;;1.70;0.40;;;;;;;;;;2064412;28;20018;-42
2024/03/26 05:02:39;;;;;;;3.72;0.60;;;;;;;;;;2065837;28;20030;-43
2024/03/26 05:03:40;;;;;;;2.67;0.60;;;;;;;;;;2059911;28;20027;-43
2024/03/26 05:04:42;;;;;;;2.78;0.60;;;;;;;;;;2062541;28;20030;-44
2024/03/26 05:05:43;;;;;;;1.50;0.50;;;;;;;;;;2063970;28;20053;-45
2024/03/26 05:06:44;;;;;;;2.20;0.68;;;;;;;;;;2064390;28;20097;-42
2024/03/26 05:07:46;;;;;;;1.65;0.50;;;;;;;;;;2065801;28;20060;-41
2024/03/26 05:08:47;;;;;;;1.95;0.55;;;;;;;;;;2064601;28;20053;-44
2024/03/26 05:09:48;;;;;;;3.45;0.52;;;;;;;;;;2063974;28;20025;-43
2024/03/26 05:10:50;;;;;;;3.63;0.68;;;;;;;;;;2063300;28;20560;-42
2024/03/26 05:11:51;;;;;;;4.40;0.82;;;;;;;;;;2065125;28;20022;-42
2024/03/26 05:12:52;;;;;;;1.50;0.38;;;;;;;;;;2064146;28;20049;-47
2024/03/26 05:13:54;;;;;;;2.28;0.50;;;;;;;;;;2065200;28;20049;-45
2024/03/26 05:14:55;;;;;;;3.80;0.60;;;;;;;;;;2062471;28;20030;-46
2024/03/26 05:15:59;;;;;;;2.70;0.70;;;;;;;;;;2063775;28;20026;-46
2024/03/26 05:17:00;;;;;;;1.65;0.40;;;;;;;;;;2061185;28;20405;-46
2024/03/26 05:18:01;;;;;;;3.70;0.57;;;;;;;;;;2063256;28;20113;-46
2024/03/26 05:19:03;;;;;;;1.63;0.52;;;;;;;;;;2057515;28;20457;-47
2024/03/26 05:20:05;;;;;;;2.05;0.73;;;;;;;;;;2064249;28;20125;-45
2024/03/26 05:21:06;;;;;;;1.58;0.60;;;;;;;;;;2065676;28;20134;-46
2024/03/26 05:22:07;;;;;;;3.88;0.80;;;;;;;;;;2062243;28;20046;-47
2024/03/26 05:23:09;;;;;;;1.92;0.70;;;;;;;;;;2042895;29;20020;-46
2024/03/26 05:24:10;;;;;;;1.73;0.50;;;;;;;;;;2041829;28;20018;-47
2024/03/26 05:25:11;;;;;;;3.83;0.68;;;;;;;;;;2065039;28;20026;-46
2024/03/26 05:26:13;;;;;;;2.97;0.57;;;;;;;;;;2060214;28;20125;-47
2024/03/26 05:27:14;;;;;;;2.78;0.70;;;;;;;;;;2064764;28;20547;-47
2024/03/26 05:28:16;;;;;;;1.88;0.65;;;;;;;;;;2061172;28;20018;-46
2024/03/26 05:29:18;;;;;;;3.15;0.73;;;;;;;;;;2059979;28;20030;-46
2024/03/26 05:30:19;;;;;;;2.90;0.55;;;;;;;;;;2063582;28;20401;-46
2024/03/26 05:31:21;;;;;;;2.72;0.75;;;;;;;;;;2065399;28;20029;-46
2024/03/26 05:32:22;;;;;;;1.88;0.40;;;;;;;;;;2064849;28;20019;-46
2024/03/26 05:33:25;;;;;;;1.35;0.50;;;;;;;;;;2049129;28;20505;-47
2024/03/26 05:34:26;;;;;;;2.03;0.60;;;;;;;;;;2056556;28;20043;-48
2024/03/26 05:35:30;;;;;;;3.10;0.77;;;;;;;;;;2061866;28;20019;-46
2024/03/26 05:36:31;;;;;;;2.20;0.90;;;;;;;;;;2065573;28;20065;-49
2024/03/26 05:37:32;;;;;;;4.38;0.80;;;;;;;;;;2064535;28;20029;-46
2024/03/26 05:38:34;;;;;;;1.85;0.63;;;;;;;;;;2064129;28;20072;-46
2024/03/26 05:39:35;;;;;;;2.25;0.60;;;;;;;;;;2064433;28;20034;-46
2024/03/26 05:40:36;;;;;;;4.80;0.73;;;;;;;;;;2064662;28;20053;-45
2024/03/26 05:41:40;;;;;;;2.22;0.70;;;;;;;;;;2064994;28;20019;-47
2024/03/26 05:42:41;;;;;;;3.63;0.82;;;;;;;;;;2065354;28;20022;-46
2024/03/26 05:43:42;;;;;;;3.17;0.85;;;;;;;;;;2065213;28;20045;-47
2024/03/26 05:44:44;;;;;;;2.03;0.70;;;;;;;;;;2065489;28;20161;-46
2024/03/26 05:45:45;;;;;;;0.98;0.50;;;;;;;;;;2065117;28;20374;-47
2024/03/26 05:46:46;;;;;;;1.88;0.50;;;;;;;;;;2065538;28;20042;-42
2024/03/26 05:47:48;;;;;;;3.42;0.57;;;;;;;;;;2065558;28;20054;-44
2024/03/26 05:48:49;;;;;;;1.65;0.50;;;;;;;;;;2065127;28;20062;-42
2024/03/26 05:49:50;;;;;;;2.35;0.70;;;;;;;;;;2065540;28;20082;-43
2024/03/26 05:50:53;;;;;;;4.15;0.63;;;;;;;;;;2063697;28;20053;-47
2024/03/26 05:51:54;;;;;;;4.57;0.60;;;;;;;;;;2065202;28;20022;-47
2024/03/26 05:52:55;;;;;;;5.28;1.00;;;;;;;;;;2065608;28;20089;-42
2024/03/26 05:53:58;;;;;;;1.13;0.35;;;;;;;;;;2063230;28;20492;-42
2024/03/26 05:54:59;;;;;;;1.45;0.30;;;;;;;;;;2063319;28;20027;-43
2024/03/26 05:56:00;;;;;;;1.65;0.55;;;;;;;;;;2065600;28;20073;-43
2024/03/26 05:57:02;;;;;;;3.03;0.60;;;;;;;;;;2063452;28;20112;-42
2024/03/26 05:58:03;;;;;;;2.67;0.50;;;;;;;;;;2065269;28;20019;-43
2024/03/26 05:59:04;;;;;;;1.30;0.30;;;;;;;;;;2065338;28;20023;-47
2024/03/26 06:00:08;;;;;;;2.38;0.60;;;;;;;;;;2064576;28;20504;-46
2024/03/26 06:01:09;;;;;;;5.07;0.77;;;;;;;;;;2064721;28;20449;-46
2024/03/26 06:02:10;;;;;;;4.07;0.63;;;;;;;;;;2065182;28;20054;-47
2024/03/26 06:03:12;;;;;;;2.58;0.80;;;;;;;;;;2065124;28;20487;-47
2024/03/26 06:04:13;;;;;;;1.63;0.50;;;;;;;;;;2064524;28;20131;-47
2024/03/26 06:05:14;;;;;;;1.88;0.45;;;;;;;;;;2064524;28;20485;-48
2024/03/26 06:06:18;;;;;;;3.90;0.57;;;;;;;;;;2065053;28;20113;-47
2024/03/26 06:07:19;;;;;;;2.90;0.68;;;;;;;;;;2065436;28;20049;-46
2024/03/26 06:08:21;;;;;;;1.75;0.50;;;;;;;;;;2063986;28;20032;-46
2024/03/26 06:09:22;;;;;;;2.92;0.88;;;;;;;;;;2065358;28;20140;-47